createdAt,value
2023-09-10T00:00:30.867Z,101583.53
2023-09-10T00:02:57.981Z,101574.97
2023-09-10T00:05:25.214Z,101576.19
2023-09-10T00:07:54.694Z,101574.66
2023-09-10T00:10:21.736Z,101577.59
2023-09-10T00:12:48.843Z,101585.69
2023-09-10T00:15:16.018Z,101573.25
2023-09-10T00:17:43.058Z,101583.88
2023-09-10T00:20:11.693Z,101572.16
2023-09-10T00:22:41.365Z,101573.88
2023-09-10T00:25:08.526Z,101569.38
2023-09-10T00:27:35.567Z,101572.50
2023-09-10T00:30:03.008Z,101576.44
2023-09-10T00:32:30.264Z,101574.47
2023-09-10T00:34:57.340Z,101569.91
2023-09-10T00:37:24.811Z,101566.38
2023-09-10T00:39:51.932Z,101569.78
2023-09-10T00:42:19.086Z,101568.84
2023-09-10T00:44:46.369Z,101574.13
2023-09-10T00:47:14.426Z,101565.91
2023-09-10T00:49:42.362Z,101568.50
2023-09-10T00:52:09.529Z,101560.56
2023-09-10T00:54:37.458Z,101564.28
2023-09-10T00:57:05.596Z,101564.28
2023-09-10T00:59:32.838Z,101561.78
2023-09-10T01:02:00.212Z,101558.25
2023-09-10T01:04:27.515Z,101567.31
2023-09-10T01:06:54.925Z,101568.94
2023-09-10T01:09:27.289Z,101567.06
2023-09-10T01:12:37.120Z,101566.44
2023-09-10T01:15:31.376Z,101574.72
2023-09-10T01:18:21.775Z,101573.00
2023-09-10T01:21:07.572Z,101575.50
2023-09-10T01:23:54.134Z,101576.13
2023-09-10T01:26:21.189Z,101570.56
2023-09-10T01:28:48.283Z,101573.34
2023-09-10T01:31:15.632Z,101572.56
2023-09-10T01:33:53.734Z,101576.19
2023-09-10T01:36:40.012Z,101576.34
2023-09-10T01:39:13.792Z,101574.56
2023-09-10T01:41:44.911Z,101578.09
2023-09-10T01:44:15.068Z,101578.00
2023-09-10T01:46:43.964Z,101587.84
2023-09-10T01:49:11.405Z,101579.13
2023-09-10T01:51:38.560Z,101576.53
2023-09-10T01:54:05.722Z,101582.84
2023-09-10T01:56:32.791Z,101580.16
2023-09-10T01:58:59.822Z,101572.31
2023-09-10T02:01:26.975Z,101576.97
2023-09-10T02:03:54.180Z,101573.72
2023-09-10T02:06:21.325Z,101582.69
2023-09-10T02:08:48.351Z,101583.69
2023-09-10T02:11:15.546Z,101585.00
2023-09-10T02:13:42.669Z,101588.78
2023-09-10T02:16:10.094Z,101579.91
2023-09-10T02:18:37.465Z,101584.31
2023-09-10T02:21:12.880Z,101593.00
2023-09-10T02:23:44.778Z,101586.72
2023-09-10T02:26:12.120Z,101586.47
2023-09-10T02:28:39.509Z,101601.19
2023-09-10T02:31:09.855Z,101589.50
2023-09-10T02:33:36.957Z,101591.22
2023-09-10T02:36:04.729Z,101591.22
2023-09-10T02:38:33.175Z,101586.56
2023-09-10T02:41:01.008Z,101588.19
2023-09-10T02:43:28.387Z,101581.22
2023-09-10T02:45:55.730Z,101586.03
2023-09-10T02:48:23.644Z,101583.69
2023-09-10T02:50:50.730Z,101586.47
2023-09-10T02:53:17.787Z,101580.94
2023-09-10T02:55:44.897Z,101588.88
2023-09-10T02:58:11.972Z,101592.22
2023-09-10T03:00:40.108Z,101594.84
2023-09-10T03:03:07.193Z,101584.22
2023-09-10T03:05:35.645Z,101580.69
2023-09-10T03:08:03.038Z,101590.25
2023-09-10T03:10:30.140Z,101588.28
2023-09-10T03:12:57.420Z,101590.78
2023-09-10T03:15:25.770Z,101588.19
2023-09-10T03:17:52.922Z,101591.13
2023-09-10T03:20:20.129Z,101583.38
2023-09-10T03:22:47.384Z,101585.16
2023-09-10T03:25:14.592Z,101592.22
2023-09-10T03:27:41.827Z,101584.22
2023-09-10T03:30:09.502Z,101586.72
2023-09-10T03:32:36.730Z,101580.25
2023-09-10T03:35:05.672Z,101578.19
2023-09-10T03:37:33.031Z,101580.75
2023-09-10T03:40:00.047Z,101580.59
2023-09-10T03:42:27.089Z,101579.66
2023-09-10T03:44:54.324Z,101576.34
2023-09-10T03:47:21.438Z,101571.09
2023-09-10T03:49:48.598Z,101573.00
2023-09-10T03:52:21.443Z,101576.63
2023-09-10T03:54:49.339Z,101581.00
2023-09-10T03:57:16.453Z,101580.00
2023-09-10T03:59:43.868Z,101581.63
2023-09-10T04:02:14.348Z,101578.88
2023-09-10T04:04:42.870Z,101573.34
2023-09-10T04:07:10.377Z,101572.41
2023-09-10T04:09:37.392Z,101574.97
2023-09-10T04:12:04.748Z,101574.19
2023-09-10T04:14:32.165Z,101569.78
2023-09-10T04:16:59.285Z,101569.91
2023-09-10T04:19:26.362Z,101578.69
2023-09-10T04:21:53.542Z,101575.06
2023-09-10T04:24:20.671Z,101573.34
2023-09-10T04:26:48.787Z,101575.91
2023-09-10T04:29:16.082Z,101574.81
2023-09-10T04:31:44.522Z,101573.09
2023-09-10T04:34:12.826Z,101574.81
2023-09-10T04:36:40.709Z,101566.00
2023-09-10T04:39:10.598Z,101569.34
2023-09-10T04:41:41.861Z,101571.25
2023-09-10T04:44:09.619Z,101569.34
2023-09-10T04:46:37.481Z,101574.53
2023-09-10T04:49:04.904Z,101573.66
2023-09-10T04:51:32.023Z,101570.31
2023-09-10T04:54:00.241Z,101573.09
2023-09-10T04:56:27.579Z,101568.16
2023-09-10T04:58:54.741Z,101573.69
2023-09-10T05:01:22.753Z,101576.63
2023-09-10T05:03:50.024Z,101578.88
2023-09-10T05:06:20.766Z,101586.28
2023-09-10T05:08:47.902Z,101576.81
2023-09-10T05:11:15.957Z,101582.41
2023-09-10T05:13:43.187Z,101589.66
2023-09-10T05:16:10.470Z,101584.31
2023-09-10T05:18:40.987Z,101583.09
2023-09-10T05:21:08.895Z,101585.41
2023-09-10T05:23:36.069Z,101589.81
2023-09-10T05:26:04.470Z,101588.03
2023-09-10T05:28:32.537Z,101589.91
2023-09-10T05:31:10.098Z,101590.50
2023-09-10T05:33:39.719Z,101590.25
2023-09-10T05:36:08.303Z,101596.22
2023-09-10T05:38:35.585Z,101594.22
2023-09-10T05:41:05.337Z,101603.88
2023-09-10T05:43:32.830Z,101594.06
2023-09-10T05:46:00.909Z,101602.75
2023-09-10T05:48:28.375Z,101599.03
2023-09-10T05:50:59.929Z,101598.88
2023-09-10T05:53:29.809Z,101602.25
2023-09-10T05:55:57.029Z,101596.63
2023-09-10T05:58:25.598Z,101607.88
2023-09-10T06:00:56.429Z,101606.56
2023-09-10T06:03:25.389Z,101604.50
2023-09-10T06:05:52.779Z,101606.69
2023-09-10T06:08:20.113Z,101598.50
2023-09-10T06:10:47.349Z,101606.94
2023-09-10T06:13:14.480Z,101608.22
2023-09-10T06:15:42.449Z,101609.50
2023-09-10T06:18:09.955Z,101613.53
2023-09-10T06:20:37.109Z,101611.34
2023-09-10T06:23:04.686Z,101616.22
2023-09-10T06:25:33.063Z,101603.25
2023-09-10T06:28:00.318Z,101612.47
2023-09-10T06:30:28.261Z,101608.28
2023-09-10T06:32:55.478Z,101615.81
2023-09-10T06:35:22.736Z,101609.88
2023-09-10T06:37:50.070Z,101611.97
2023-09-10T06:40:17.725Z,101613.13
2023-09-10T06:42:46.776Z,101611.69
2023-09-10T06:45:25.118Z,101619.44
2023-09-10T06:47:52.164Z,101611.09
2023-09-10T06:50:19.403Z,101615.97
2023-09-10T06:52:46.531Z,101627.06
2023-09-10T06:55:15.252Z,101623.28
2023-09-10T06:57:44.720Z,101617.50
2023-09-10T07:00:12.503Z,101619.75
2023-09-10T07:02:39.623Z,101617.56
2023-09-10T07:05:07.098Z,101625.94
2023-09-10T07:07:34.178Z,101624.38
2023-09-10T07:10:01.216Z,101632.69
2023-09-10T07:12:28.312Z,101630.16
2023-09-10T07:14:55.317Z,101625.00
2023-09-10T07:17:22.455Z,101632.56
2023-09-10T07:19:50.017Z,101632.91
2023-09-10T07:22:17.124Z,101631.31
2023-09-10T07:24:44.173Z,101633.38
2023-09-10T07:27:11.360Z,101634.69
2023-09-10T07:29:38.368Z,101632.19
2023-09-10T07:32:05.846Z,101634.25
2023-09-10T07:34:32.939Z,101631.22
2023-09-10T07:36:59.974Z,101630.69
2023-09-10T07:39:30.533Z,101636.16
2023-09-10T07:41:57.964Z,101630.16
2023-09-10T07:44:25.141Z,101631.22
2023-09-10T07:46:53.805Z,101636.56
2023-09-10T07:49:20.961Z,101637.53
2023-09-10T07:51:48.010Z,101631.47
2023-09-10T07:54:15.082Z,101633.56
2023-09-10T07:56:42.104Z,101646.38
2023-09-10T07:59:12.768Z,101635.88
2023-09-10T08:01:40.313Z,101638.00
2023-09-10T08:04:08.124Z,101640.13
2023-09-10T08:06:35.291Z,101642.03
2023-09-10T08:09:02.389Z,101650.16
2023-09-10T08:11:29.622Z,101651.28
2023-09-10T08:13:56.710Z,101648.00
2023-09-10T08:16:23.968Z,101655.50
2023-09-10T08:18:51.295Z,101649.63
2023-09-10T08:21:18.445Z,101649.81
2023-09-10T08:23:46.134Z,101658.75
2023-09-10T08:26:13.456Z,101656.84
2023-09-10T08:28:41.180Z,101662.22
2023-09-10T08:31:08.485Z,101648.00
2023-09-10T08:33:35.543Z,101652.66
2023-09-10T08:36:02.690Z,101649.22
2023-09-10T08:38:29.898Z,101640.53
2023-09-10T08:40:59.804Z,101644.91
2023-09-10T08:43:42.512Z,101640.38
2023-09-10T08:46:11.861Z,101649.16
2023-09-10T08:48:44.933Z,101638.47
2023-09-10T08:51:14.153Z,101640.41
2023-09-10T08:53:44.290Z,101638.03
2023-09-10T08:56:12.824Z,101630.44
2023-09-10T08:58:43.704Z,101629.66
2023-09-10T09:01:13.312Z,101630.56
2023-09-10T09:03:41.003Z,101637.50
2023-09-10T09:06:09.410Z,101635.72
2023-09-10T09:08:37.855Z,101636.78
2023-09-10T09:11:10.203Z,101638.47
2023-09-10T09:13:45.509Z,101636.78
2023-09-10T09:16:13.753Z,101638.97
2023-09-10T09:18:42.260Z,101628.16
2023-09-10T09:21:18.157Z,101627.22
2023-09-10T09:23:52.170Z,101628.25
2023-09-10T09:26:20.035Z,101624.00
2023-09-10T09:28:47.709Z,101622.63
2023-09-10T09:31:15.202Z,101619.81
2023-09-10T09:33:45.182Z,101623.41
2023-09-10T09:36:12.798Z,101622.56
2023-09-10T09:38:45.098Z,101623.00
2023-09-10T09:41:15.353Z,101621.16
2023-09-10T09:43:42.632Z,101620.00
2023-09-10T09:46:10.836Z,101613.34
2023-09-10T09:48:40.100Z,101625.16
2023-09-10T09:51:07.605Z,101624.47
2023-09-10T09:53:34.976Z,101619.88
2023-09-10T09:56:06.009Z,101624.41
2023-09-10T09:58:34.353Z,101609.44
2023-09-10T10:01:02.256Z,101612.97
2023-09-10T10:03:33.477Z,101614.53
2023-09-10T10:06:02.687Z,101610.06
2023-09-10T10:08:34.039Z,101599.47
2023-09-10T10:11:01.334Z,101599.88
2023-09-10T10:13:28.755Z,101601.69
2023-09-10T10:15:57.561Z,101597.91
2023-09-10T10:18:30.893Z,101592.56
2023-09-10T10:21:04.619Z,101595.44
2023-09-10T10:23:40.600Z,101597.38
2023-09-10T10:26:12.028Z,101593.19
2023-09-10T10:28:40.436Z,101597.44
2023-09-10T10:31:18.984Z,101594.13
2023-09-10T10:33:56.223Z,101591.97
2023-09-10T10:36:56.736Z,101588.94
2023-09-10T10:39:38.262Z,101588.59
2023-09-10T10:42:10.852Z,101579.16
2023-09-10T10:44:39.404Z,101579.38
2023-09-10T10:47:20.426Z,101576.75
2023-09-10T10:49:55.978Z,101582.13
2023-09-10T10:52:32.860Z,101577.59
2023-09-10T10:55:00.398Z,101575.28
2023-09-10T10:57:30.802Z,101570.38
2023-09-10T10:59:58.644Z,101570.91
2023-09-10T11:02:26.017Z,101563.97
2023-09-10T11:05:04.177Z,101567.75
2023-09-10T11:07:33.511Z,101573.91
2023-09-10T11:10:30.555Z,101562.22
2023-09-10T11:13:09.052Z,101568.44
2023-09-10T11:15:36.823Z,101561.16
2023-09-10T11:18:40.880Z,101564.47
2023-09-10T11:21:09.858Z,101563.13
2023-09-10T11:23:41.140Z,101561.47
2023-09-10T11:26:14.727Z,101556.56
2023-09-10T11:28:51.960Z,101562.91
2023-09-10T11:31:34.443Z,101555.94
2023-09-10T11:34:20.573Z,101559.88
2023-09-10T11:36:58.024Z,101556.19
2023-09-10T11:39:26.195Z,101552.63
2023-09-10T11:41:55.871Z,101550.41
2023-09-10T11:44:23.270Z,101550.41
2023-09-10T11:46:54.927Z,101553.00
2023-09-10T11:49:24.981Z,101555.53
2023-09-10T11:51:56.889Z,101557.78
2023-09-10T11:54:24.574Z,101551.81
2023-09-10T11:56:56.690Z,101555.91
2023-09-10T11:59:31.922Z,101550.34
2023-09-10T12:02:00.631Z,101555.41
2023-09-10T12:04:34.159Z,101558.81
2023-09-10T12:07:02.776Z,101561.56
2023-09-10T12:09:32.211Z,101551.00
2023-09-10T12:12:15.212Z,101548.75
2023-09-10T12:14:43.186Z,101545.38
2023-09-10T12:17:11.404Z,101553.19
2023-09-10T12:19:39.709Z,101542.09
2023-09-10T12:22:12.036Z,101541.78
2023-09-10T12:24:42.050Z,101542.66
2023-09-10T12:27:10.675Z,101543.47
2023-09-10T12:29:38.606Z,101545.66
2023-09-10T12:32:06.514Z,101537.94
2023-09-10T12:34:34.504Z,101539.81
2023-09-10T12:37:01.604Z,101541.50
2023-09-10T12:39:28.989Z,101530.91
2023-09-10T12:42:04.957Z,101522.69
2023-09-10T12:44:34.974Z,101534.44
2023-09-10T12:47:02.489Z,101519.94
2023-09-10T12:49:30.354Z,101528.59
2023-09-10T12:51:57.364Z,101519.84
2023-09-10T12:54:24.996Z,101518.22
2023-09-10T12:56:53.010Z,101519.81
2023-09-10T12:59:22.124Z,101512.34
2023-09-10T13:01:50.952Z,101509.28
2023-09-10T13:04:18.520Z,101501.63
2023-09-10T13:06:49.199Z,101508.59
2023-09-10T13:09:17.632Z,101502.69
2023-09-10T13:11:44.781Z,101501.78
2023-09-10T13:14:11.875Z,101511.16
2023-09-10T13:16:38.905Z,101500.25
2023-09-10T13:19:06.215Z,101496.84
2023-09-10T13:21:34.803Z,101490.53
2023-09-10T13:24:02.064Z,101496.47
2023-09-10T13:26:29.369Z,101492.75
2023-09-10T13:28:56.445Z,101498.03
2023-09-10T13:31:23.545Z,101489.16
2023-09-10T13:33:51.663Z,101488.88
2023-09-10T13:36:18.738Z,101486.00
2023-09-10T13:38:45.869Z,101486.34
2023-09-10T13:41:13.370Z,101484.34
2023-09-10T13:43:40.970Z,101480.66
2023-09-10T13:46:08.724Z,101480.34
2023-09-10T13:48:35.967Z,101474.56
2023-09-10T13:51:03.343Z,101490.41
2023-09-10T13:53:30.803Z,101480.06
2023-09-10T13:56:00.742Z,101476.16
2023-09-10T13:58:27.876Z,101477.97
2023-09-10T14:00:54.903Z,101471.38
2023-09-10T14:03:27.553Z,101467.06
2023-09-10T14:05:55.735Z,101466.25
2023-09-10T14:08:22.899Z,101475.06
2023-09-10T14:10:50.058Z,101473.00
2023-09-10T14:13:17.193Z,101473.38
2023-09-10T14:15:44.426Z,101472.25
2023-09-10T14:18:12.344Z,101470.38
2023-09-10T14:20:39.561Z,101467.75
2023-09-10T14:23:06.923Z,101464.09
2023-09-10T14:25:34.533Z,101466.50
2023-09-10T14:28:01.586Z,101468.59
2023-09-10T14:30:28.858Z,101465.84
2023-09-10T14:32:56.075Z,101457.97
2023-09-10T14:35:23.461Z,101455.03
2023-09-10T14:37:50.959Z,101452.97
2023-09-10T14:40:18.763Z,101458.53
2023-09-10T14:42:46.035Z,101462.59
2023-09-10T14:45:13.350Z,101452.28
2023-09-10T14:47:40.759Z,101448.72
2023-09-10T14:50:13.970Z,101456.53
2023-09-10T14:52:45.480Z,101444.69
2023-09-10T14:55:13.420Z,101447.03
2023-09-10T14:57:40.953Z,101449.25
2023-09-10T15:00:08.735Z,101447.19
2023-09-10T15:02:38.261Z,101447.59
2023-09-10T15:05:09.303Z,101441.34
2023-09-10T15:07:36.532Z,101439.38
2023-09-10T15:10:04.308Z,101446.72
2023-09-10T15:12:31.554Z,101440.31
2023-09-10T15:14:58.637Z,101437.09
2023-09-10T15:17:25.693Z,101431.50
2023-09-10T15:19:52.834Z,101429.94
2023-09-10T15:22:19.852Z,101435.88
2023-09-10T15:24:47.046Z,101433.44
2023-09-10T15:27:14.076Z,101432.38
2023-09-10T15:29:41.175Z,101425.25
2023-09-10T15:32:08.831Z,101429.56
2023-09-10T15:34:35.863Z,101420.59
2023-09-10T15:37:02.966Z,101413.53
2023-09-10T15:39:30.369Z,101416.03
2023-09-10T15:41:57.552Z,101409.41
2023-09-10T15:44:24.931Z,101406.19
2023-09-10T15:46:52.116Z,101404.75
2023-09-10T15:49:19.812Z,101409.75
2023-09-10T15:51:47.008Z,101411.53
2023-09-10T15:54:14.345Z,101408.19
2023-09-10T15:56:41.500Z,101404.66
2023-09-10T15:59:09.947Z,101399.78
2023-09-10T16:01:37.383Z,101405.41
2023-09-10T16:04:05.025Z,101399.13
2023-09-10T16:06:34.878Z,101400.31
2023-09-10T16:09:04.799Z,101397.28
2023-09-10T16:11:33.683Z,101396.59
2023-09-10T16:14:01.002Z,101391.69
2023-09-10T16:16:28.720Z,101382.66
2023-09-10T16:18:59.593Z,101390.50
2023-09-10T16:21:28.246Z,101387.47
2023-09-10T16:23:55.400Z,101378.94
2023-09-10T16:26:22.846Z,101381.69
2023-09-10T16:28:49.867Z,101385.47
2023-09-10T16:31:17.248Z,101381.34
2023-09-10T16:33:44.366Z,101384.25
2023-09-10T16:36:11.410Z,101381.03
2023-09-10T16:38:38.472Z,101385.97
2023-09-10T16:41:05.579Z,101380.03
2023-09-10T16:43:32.682Z,101377.63
2023-09-10T16:45:59.810Z,101388.69
2023-09-10T16:48:26.980Z,101383.59
2023-09-10T16:50:54.232Z,101380.38
2023-09-10T16:53:21.293Z,101383.63
2023-09-10T16:55:54.076Z,101383.25
2023-09-10T16:58:23.492Z,101379.34
2023-09-10T17:00:51.089Z,101379.16
2023-09-10T17:03:18.324Z,101384.28
2023-09-10T17:05:46.043Z,101383.25
2023-09-10T17:08:13.259Z,101379.66
2023-09-10T17:10:40.390Z,101376.75
2023-09-10T17:13:07.654Z,101372.50
2023-09-10T17:15:35.504Z,101371.94
2023-09-10T17:18:03.375Z,101377.69
2023-09-10T17:20:33.609Z,101373.38
2023-09-10T17:23:02.005Z,101373.84
2023-09-10T17:25:29.288Z,101369.72
2023-09-10T17:27:58.236Z,101366.59
2023-09-10T17:30:25.249Z,101361.63
2023-09-10T17:32:59.655Z,101364.06
2023-09-10T17:35:28.157Z,101361.38
2023-09-10T17:37:55.624Z,101361.97
2023-09-10T17:40:26.974Z,101364.41
2023-09-10T17:42:53.984Z,101365.63
2023-09-10T17:45:22.042Z,101370.59
2023-09-10T17:47:49.156Z,101375.41
2023-09-10T17:50:16.328Z,101368.34
2023-09-10T17:52:43.490Z,101375.03
2023-09-10T17:55:10.571Z,101376.19
2023-09-10T17:57:37.602Z,101377.56
2023-09-10T18:00:07.608Z,101377.94
2023-09-10T18:02:34.870Z,101380.97
2023-09-10T18:05:04.327Z,101374.91
2023-09-10T18:07:33.362Z,101378.63
2023-09-10T18:10:00.985Z,101381.50
2023-09-10T18:12:28.224Z,101375.28
2023-09-10T18:14:55.379Z,101378.97
2023-09-10T18:17:22.593Z,101379.13
2023-09-10T18:19:49.729Z,101377.59
2023-09-10T18:22:16.954Z,101375.59
2023-09-10T18:24:45.035Z,101386.97
2023-09-10T18:27:12.180Z,101382.13
2023-09-10T18:29:40.190Z,101383.56
2023-09-10T18:32:07.943Z,101386.84
2023-09-10T18:34:35.493Z,101390.41
2023-09-10T18:37:02.602Z,101399.94
2023-09-10T18:39:29.807Z,101393.09
2023-09-10T18:41:58.367Z,101391.94
2023-09-10T18:44:25.461Z,101391.75
2023-09-10T18:46:57.371Z,101398.84
2023-09-10T18:49:24.662Z,101393.56
2023-09-10T18:52:15.568Z,101389.97
2023-09-10T18:54:44.043Z,101386.13
2023-09-10T18:57:14.849Z,101386.53
2023-09-10T18:59:43.018Z,101390.38
2023-09-10T19:02:10.535Z,101394.47
2023-09-10T19:04:38.156Z,101396.56
2023-09-10T19:07:08.163Z,101404.94
2023-09-10T19:09:35.676Z,101399.81
2023-09-10T19:12:03.093Z,101405.34
2023-09-10T19:14:31.674Z,101400.06
2023-09-10T19:16:58.809Z,101393.94
2023-09-10T19:19:25.920Z,101398.63
2023-09-10T19:21:52.979Z,101401.44
2023-09-10T19:24:20.065Z,101400.84
2023-09-10T19:26:47.166Z,101401.00
2023-09-10T19:29:14.230Z,101399.13
2023-09-10T19:31:42.276Z,101393.72
2023-09-10T19:34:09.846Z,101392.16
2023-09-10T19:36:37.034Z,101395.00
2023-09-10T19:39:10.861Z,101394.84
2023-09-10T19:41:39.402Z,101399.53
2023-09-10T19:44:09.063Z,101400.66
2023-09-10T19:46:37.485Z,101400.94
2023-09-10T19:49:04.858Z,101395.81
2023-09-10T19:51:32.038Z,101398.78
2023-09-10T19:53:59.154Z,101395.47
2023-09-10T19:56:28.391Z,101395.63
2023-09-10T19:59:12.907Z,101395.63
2023-09-10T20:01:45.134Z,101394.91
2023-09-10T20:04:13.239Z,101397.00
2023-09-10T20:06:42.688Z,101397.41
2023-09-10T20:09:09.897Z,101404.78
2023-09-10T20:11:37.867Z,101403.31
2023-09-10T20:14:07.382Z,101396.50
2023-09-10T20:16:35.284Z,101400.19
2023-09-10T20:19:02.364Z,101406.56
2023-09-10T20:21:29.496Z,101397.72
2023-09-10T20:23:56.596Z,101391.00
2023-09-10T20:26:25.045Z,101390.28
2023-09-10T20:28:52.190Z,101393.13
2023-09-10T20:31:19.326Z,101386.38
2023-09-10T20:33:47.170Z,101383.06
2023-09-10T20:36:14.448Z,101379.78
2023-09-10T20:38:41.976Z,101387.28
2023-09-10T20:41:17.314Z,101382.25
2023-09-10T20:43:44.963Z,101374.56
2023-09-10T20:46:13.256Z,101374.84
2023-09-10T20:48:41.281Z,101377.19
2023-09-10T20:51:09.788Z,101368.50
2023-09-10T20:53:38.544Z,101371.44
2023-09-10T20:56:05.735Z,101372.56
2023-09-10T20:58:32.869Z,101367.28
2023-09-10T21:01:00.356Z,101371.09
2023-09-10T21:03:30.350Z,101362.41
2023-09-10T21:05:59.419Z,101362.66
2023-09-10T21:08:27.488Z,101368.19
2023-09-10T21:10:54.831Z,101369.41
2023-09-10T21:13:21.891Z,101368.81
2023-09-10T21:15:49.278Z,101357.44
2023-09-10T21:18:20.098Z,101363.06
2023-09-10T21:20:47.225Z,101364.06
2023-09-10T21:23:14.387Z,101366.03
2023-09-10T21:25:42.759Z,101359.88
2023-09-10T21:28:10.336Z,101356.22
2023-09-10T21:30:37.437Z,101361.84
2023-09-10T21:33:06.333Z,101361.09
2023-09-10T21:35:34.175Z,101357.06
2023-09-10T21:38:01.307Z,101356.22
2023-09-10T21:40:28.347Z,101350.34
2023-09-10T21:42:55.381Z,101350.72
2023-09-10T21:45:22.446Z,101350.13
2023-09-10T21:47:49.570Z,101348.41
2023-09-10T21:50:16.662Z,101346.06
2023-09-10T21:52:43.689Z,101348.91
2023-09-10T21:55:10.724Z,101348.44
2023-09-10T21:57:37.763Z,101348.69
2023-09-10T22:00:05.823Z,101344.50
2023-09-10T22:02:33.076Z,101339.38
2023-09-10T22:05:00.411Z,101334.97
2023-09-10T22:07:27.486Z,101337.91
2023-09-10T22:09:55.375Z,101336.56
2023-09-10T22:12:22.659Z,101343.44
2023-09-10T22:14:50.180Z,101340.97
2023-09-10T22:17:17.273Z,101339.25
2023-09-10T22:19:44.350Z,101330.34
2023-09-10T22:22:11.815Z,101332.06
2023-09-10T22:24:38.948Z,101329.34
2023-09-10T22:27:06.050Z,101335.81
2023-09-10T22:29:33.144Z,101321.72
2023-09-10T22:32:00.239Z,101320.28
2023-09-10T22:34:27.263Z,101324.91
2023-09-10T22:36:55.430Z,101319.75
2023-09-10T22:39:22.511Z,101315.34
2023-09-10T22:41:49.565Z,101315.63
2023-09-10T22:44:16.730Z,101319.53
2023-09-10T22:46:43.800Z,101311.06
2023-09-10T22:49:10.815Z,101317.66
2023-09-10T22:51:38.711Z,101319.03
2023-09-10T22:54:05.841Z,101313.00
2023-09-10T22:56:33.125Z,101314.09
2023-09-10T22:59:00.345Z,101319.00
2023-09-10T23:01:27.925Z,101314.69
2023-09-10T23:03:55.332Z,101308.97
2023-09-10T23:06:22.645Z,101311.00
2023-09-10T23:08:49.732Z,101303.41
2023-09-10T23:11:16.971Z,101300.25
2023-09-10T23:13:44.150Z,101305.19
2023-09-10T23:16:11.331Z,101301.25
2023-09-10T23:18:38.589Z,101293.78
2023-09-10T23:21:05.859Z,101301.31
2023-09-10T23:23:32.938Z,101303.41
2023-09-10T23:26:02.411Z,101300.94
2023-09-10T23:28:30.481Z,101295.56
2023-09-10T23:30:57.585Z,101288.59
2023-09-10T23:33:24.662Z,101295.81
2023-09-10T23:35:52.297Z,101285.41
2023-09-10T23:38:19.433Z,101285.75
2023-09-10T23:40:57.813Z,101289.50
2023-09-10T23:43:26.024Z,101278.88
2023-09-10T23:45:53.542Z,101277.16
2023-09-10T23:48:20.821Z,101271.03
2023-09-10T23:50:48.062Z,101262.13
2023-09-10T23:53:15.131Z,101268.34
2023-09-10T23:55:42.241Z,101269.31
2023-09-10T23:58:09.289Z,101262.34
